sensor_id;sensor_type;location;lat;lon;timestamp;pressure;altitude;pressure_sealevel;temperature;humidity
41222;BME280;26952;42.884;23.918;2022-08-19T00:00:15;95505.41;;;20.76;71.12
41222;BME280;26952;42.884;23.918;2022-08-19T00:02:41;95514.56;;;20.75;74.45
41222;BME280;26952;42.884;23.918;2022-08-19T00:05:07;95517.81;;;20.77;72.45
41222;BME280;26952;42.884;23.918;2022-08-19T00:07:33;95504.59;;;20.75;72.44
41222;BME280;26952;42.884;23.918;2022-08-19T00:09:59;95515.69;;;20.79;72.89
41222;BME280;26952;42.884;23.918;2022-08-19T00:12:24;95513.75;;;20.74;73.53
41222;BME280;26952;42.884;23.918;2022-08-19T00:14:49;95466.44;;;20.45;73.84
41222;BME280;26952;42.884;23.918;2022-08-19T00:17:15;95489.41;;;20.52;75.38
41222;BME280;26952;42.884;23.918;2022-08-19T00:19:40;95505.56;;;20.52;77.52
41222;BME280;26952;42.884;23.918;2022-08-19T00:22:06;95502.88;;;20.52;73.94
41222;BME280;26952;42.884;23.918;2022-08-19T00:24:34;95505.31;;;20.54;74.53
41222;BME280;26952;42.884;23.918;2022-08-19T00:27:00;95501.50;;;20.50;75.36
41222;BME280;26952;42.884;23.918;2022-08-19T00:29:27;95507.09;;;20.48;73.96
41222;BME280;26952;42.884;23.918;2022-08-19T00:31:53;95508.09;;;20.42;75.35
41222;BME280;26952;42.884;23.918;2022-08-19T00:34:21;95497.63;;;20.46;75.77
41222;BME280;26952;42.884;23.918;2022-08-19T00:36:47;95514.94;;;20.50;75.06
41222;BME280;26952;42.884;23.918;2022-08-19T00:39:14;95506.34;;;20.36;75.32
41222;BME280;26952;42.884;23.918;2022-08-19T00:41:41;95514.66;;;20.35;75.11
41222;BME280;26952;42.884;23.918;2022-08-19T00:44:16;95506.91;;;20.38;74.76
41222;BME280;26952;42.884;23.918;2022-08-19T00:46:44;95505.53;;;20.36;75.06
41222;BME280;26952;42.884;23.918;2022-08-19T00:51:50;95515.63;;;20.29;75.50
41222;BME280;26952;42.884;23.918;2022-08-19T00:54:16;95499.66;;;20.11;76.66
41222;BME280;26952;42.884;23.918;2022-08-19T00:56:43;95519.84;;;20.25;nan
41222;BME280;26952;42.884;23.918;2022-08-19T00:59:10;95513.34;;;20.09;78.18
41222;BME280;26952;42.884;23.918;2022-08-19T01:01:37;95520.81;;;20.07;78.15
41222;BME280;26952;42.884;23.918;2022-08-19T01:04:03;95500.22;;;19.85;78.50
41222;BME280;26952;42.884;23.918;2022-08-19T01:06:30;95506.41;;;19.85;79.06
41222;BME280;26952;42.884;23.918;2022-08-19T01:08:58;95521.81;;;19.90;79.00
41222;BME280;26952;42.884;23.918;2022-08-19T01:11:23;95518.38;;;19.66;80.13
41222;BME280;26952;42.884;23.918;2022-08-19T01:13:50;95515.69;;;19.66;80.00
41222;BME280;26952;42.884;23.918;2022-08-19T01:16:19;95514.88;;;19.54;81.38
41222;BME280;26952;42.884;23.918;2022-08-19T01:18:46;95513.16;;;19.48;81.85
41222;BME280;26952;42.884;23.918;2022-08-19T01:21:31;95520.00;;;19.56;81.23
41222;BME280;26952;42.884;23.918;2022-08-19T01:23:58;95524.13;;;19.47;81.57
41222;BME280;26952;42.884;23.918;2022-08-19T01:26:25;95525.09;;;19.29;81.85
41222;BME280;26952;42.884;23.918;2022-08-19T01:28:53;95532.91;;;19.31;82.12
41222;BME280;26952;42.884;23.918;2022-08-19T01:31:22;95529.72;;;19.22;83.12
41222;BME280;26952;42.884;23.918;2022-08-19T01:33:49;95525.03;;;19.17;83.64
41222;BME280;26952;42.884;23.918;2022-08-19T01:36:41;95533.22;;;19.11;84.81
41222;BME280;26952;42.884;23.918;2022-08-19T01:39:13;95471.00;;;18.68;85.66
41222;BME280;26952;42.884;23.918;2022-08-19T01:41:40;95522.34;;;18.94;84.76
41222;BME280;26952;42.884;23.918;2022-08-19T01:44:07;95530.53;;;18.99;86.01
41222;BME280;26952;42.884;23.918;2022-08-19T01:46:33;95496.47;;;18.88;84.75
41222;BME280;26952;42.884;23.918;2022-08-19T01:48:59;95506.59;;;18.98;83.62
41222;BME280;26952;42.884;23.918;2022-08-19T01:51:25;95527.25;;;19.09;83.42
41222;BME280;26952;42.884;23.918;2022-08-19T01:53:51;95510.44;;;19.02;82.65
41222;BME280;26952;42.884;23.918;2022-08-19T01:56:17;95490.16;;;18.94;83.85
41222;BME280;26952;42.884;23.918;2022-08-19T01:58:53;95516.63;;;19.14;80.55
41222;BME280;26952;42.884;23.918;2022-08-19T02:01:20;95527.28;;;19.32;82.00
41222;BME280;26952;42.884;23.918;2022-08-19T02:03:46;95518.97;;;19.22;82.22
41222;BME280;26952;42.884;23.918;2022-08-19T02:06:12;95503.69;;;19.11;82.46
41222;BME280;26952;42.884;23.918;2022-08-19T02:08:39;95521.78;;;19.15;83.50
41222;BME280;26952;42.884;23.918;2022-08-19T02:11:06;95512.22;;;19.08;82.35
41222;BME280;26952;42.884;23.918;2022-08-19T02:13:32;95515.69;;;19.08;82.15
41222;BME280;26952;42.884;23.918;2022-08-19T02:15:58;95527.03;;;19.10;83.71
41222;BME280;26952;42.884;23.918;2022-08-19T02:18:24;95518.50;;;19.02;84.51
41222;BME280;26952;42.884;23.918;2022-08-19T02:20:49;95522.34;;;19.06;81.86
41222;BME280;26952;42.884;23.918;2022-08-19T02:23:16;95517.22;;;19.04;80.65
41222;BME280;26952;42.884;23.918;2022-08-19T02:25:46;95521.53;;;19.17;79.05
41222;BME280;26952;42.884;23.918;2022-08-19T02:28:13;95522.03;;;19.37;77.65
41222;BME280;26952;42.884;23.918;2022-08-19T02:30:40;95506.06;;;19.31;78.54
41222;BME280;26952;42.884;23.918;2022-08-19T02:33:06;95526.09;;;19.51;77.90
41222;BME280;26952;42.884;23.918;2022-08-19T02:35:31;95532.41;;;19.45;77.11
41222;BME280;26952;42.884;23.918;2022-08-19T02:37:57;95531.13;;;19.48;77.44
41222;BME280;26952;42.884;23.918;2022-08-19T02:40:48;95520.38;;;19.36;77.85
41222;BME280;26952;42.884;23.918;2022-08-19T02:43:16;95526.59;;;19.37;78.84
41222;BME280;26952;42.884;23.918;2022-08-19T02:45:42;95524.03;;;19.30;78.96
41222;BME280;26952;42.884;23.918;2022-08-19T02:48:08;95526.94;;;19.28;78.01
41222;BME280;26952;42.884;23.918;2022-08-19T02:50:37;95532.41;;;19.34;78.18
41222;BME280;26952;42.884;23.918;2022-08-19T02:53:03;95538.59;;;19.34;79.13
41222;BME280;26952;42.884;23.918;2022-08-19T02:55:29;95541.59;;;19.26;78.83
41222;BME280;26952;42.884;23.918;2022-08-19T02:57:54;95538.22;;;19.19;79.11
41222;BME280;26952;42.884;23.918;2022-08-19T03:00:19;95551.78;;;19.24;78.39
41222;BME280;26952;42.884;23.918;2022-08-19T03:02:45;95544.16;;;19.21;78.81
41222;BME280;26952;42.884;23.918;2022-08-19T03:05:12;95545.09;;;19.15;79.86
41222;BME280;26952;42.884;23.918;2022-08-19T03:07:37;95550.22;;;19.16;80.25
41222;BME280;26952;42.884;23.918;2022-08-19T03:10:04;95541.72;;;19.08;79.67
41222;BME280;26952;42.884;23.918;2022-08-19T03:12:29;95536.69;;;19.00;80.78
41222;BME280;26952;42.884;23.918;2022-08-19T03:14:55;95543.09;;;18.99;82.31
41222;BME280;26952;42.884;23.918;2022-08-19T03:17:20;95551.63;;;18.96;82.50
41222;BME280;26952;42.884;23.918;2022-08-19T03:19:46;95559.91;;;18.94;83.14
41222;BME280;26952;42.884;23.918;2022-08-19T03:22:11;95558.16;;;19.00;82.18
41222;BME280;26952;42.884;23.918;2022-08-19T03:24:38;95503.97;;;18.57;82.86
41222;BME280;26952;42.884;23.918;2022-08-19T03:27:03;95543.41;;;18.68;84.01
41222;BME280;26952;42.884;23.918;2022-08-19T03:29:31;95563.13;;;18.73;85.38
41222;BME280;26952;42.884;23.918;2022-08-19T03:31:59;95566.50;;;18.69;85.66
41222;BME280;26952;42.884;23.918;2022-08-19T03:34:28;95559.69;;;18.55;86.12
41222;BME280;26952;42.884;23.918;2022-08-19T03:36:56;95555.84;;;18.51;86.57
41222;BME280;26952;42.884;23.918;2022-08-19T03:39:23;95575.22;;;18.64;85.68
41222;BME280;26952;42.884;23.918;2022-08-19T03:41:50;95561.53;;;18.43;87.02
41222;BME280;26952;42.884;23.918;2022-08-19T03:44:18;95582.41;;;18.52;88.21
41222;BME280;26952;42.884;23.918;2022-08-19T03:46:48;95576.97;;;18.59;88.11
41222;BME280;26952;42.884;23.918;2022-08-19T03:49:15;95580.25;;;18.61;88.48
41222;BME280;26952;42.884;23.918;2022-08-19T03:51:41;95575.44;;;18.63;88.29
41222;BME280;26952;42.884;23.918;2022-08-19T03:54:10;95567.88;;;18.60;87.99
41222;BME280;26952;42.884;23.918;2022-08-19T03:56:37;95558.78;;;18.61;87.92
41222;BME280;26952;42.884;23.918;2022-08-19T03:59:04;95559.38;;;18.74;87.50
41222;BME280;26952;42.884;23.918;2022-08-19T04:01:30;95531.06;;;18.67;85.05
41222;BME280;26952;42.884;23.918;2022-08-19T04:03:57;95579.84;;;19.10;85.87
41222;BME280;26952;42.884;23.918;2022-08-19T04:06:26;95530.88;;;19.03;82.23
41222;BME280;26952;42.884;23.918;2022-08-19T04:08:53;95584.91;;;20.38;77.30
41222;BME280;26952;42.884;23.918;2022-08-19T04:11:31;95537.50;;;21.27;72.17
41222;BME280;26952;42.884;23.918;2022-08-19T04:13:57;95561.38;;;22.16;69.61
41222;BME280;26952;42.884;23.918;2022-08-19T04:16:24;95528.28;;;22.21;68.79
41222;BME280;26952;42.884;23.918;2022-08-19T04:18:50;95562.72;;;22.35;67.82
41222;BME280;26952;42.884;23.918;2022-08-19T04:21:18;95543.59;;;22.15;66.27
41222;BME280;26952;42.884;23.918;2022-08-19T04:23:44;95553.75;;;22.08;66.23
41222;BME280;26952;42.884;23.918;2022-08-19T04:26:18;95573.75;;;22.34;67.27
41222;BME280;26952;42.884;23.918;2022-08-19T04:28:44;95579.31;;;22.70;64.16
41222;BME280;26952;42.884;23.918;2022-08-19T04:31:15;95572.56;;;22.73;64.34
41222;BME280;26952;42.884;23.918;2022-08-19T04:33:41;95571.66;;;22.62;65.28
41222;BME280;26952;42.884;23.918;2022-08-19T04:36:07;95547.19;;;22.47;67.44
41222;BME280;26952;42.884;23.918;2022-08-19T04:38:33;95577.19;;;22.72;64.12
41222;BME280;26952;42.884;23.918;2022-08-19T04:40:58;95553.28;;;22.59;65.55
41222;BME280;26952;42.884;23.918;2022-08-19T04:43:45;95573.72;;;23.03;64.88
41222;BME280;26952;42.884;23.918;2022-08-19T04:46:13;95574.84;;;23.44;64.18
41222;BME280;26952;42.884;23.918;2022-08-19T04:48:39;95557.50;;;23.77;64.37
41222;BME280;26952;42.884;23.918;2022-08-19T04:51:07;95528.31;;;23.79;61.70
41222;BME280;26952;42.884;23.918;2022-08-19T04:53:35;95553.16;;;24.17;60.97
41222;BME280;26952;42.884;23.918;2022-08-19T04:56:09;95575.16;;;24.36;62.15
41222;BME280;26952;42.884;23.918;2022-08-19T04:58:37;95567.03;;;24.36;61.79
41222;BME280;26952;42.884;23.918;2022-08-19T05:01:04;95559.34;;;24.08;61.23
41222;BME280;26952;42.884;23.918;2022-08-19T05:03:30;95576.06;;;24.00;61.51
41222;BME280;26952;42.884;23.918;2022-08-19T05:06:03;95581.38;;;23.90;63.39
41222;BME280;26952;42.884;23.918;2022-08-19T05:08:29;95582.69;;;23.82;63.10
41222;BME280;26952;42.884;23.918;2022-08-19T05:10:55;95584.00;;;23.75;64.62
41222;BME280;26952;42.884;23.918;2022-08-19T05:13:22;95549.25;;;23.52;64.00
41222;BME280;26952;42.884;23.918;2022-08-19T05:15:58;95586.72;;;23.75;63.04
41222;BME280;26952;42.884;23.918;2022-08-19T05:18:23;95608.34;;;23.75;62.68
41222;BME280;26952;42.884;23.918;2022-08-19T05:21:09;95579.53;;;23.54;62.71
41222;BME280;26952;42.884;23.918;2022-08-19T05:23:53;95606.28;;;23.50;64.17
41222;BME280;26952;42.884;23.918;2022-08-19T05:26:19;95615.47;;;22.96;65.92
41222;BME280;26952;42.884;23.918;2022-08-19T05:28:45;95606.19;;;22.60;67.91
41222;BME280;26952;42.884;23.918;2022-08-19T05:31:10;95608.13;;;22.43;69.33
41222;BME280;26952;42.884;23.918;2022-08-19T05:33:35;95615.06;;;22.39;68.98
41222;BME280;26952;42.884;23.918;2022-08-19T05:36:02;95597.59;;;22.42;70.97
41222;BME280;26952;42.884;23.918;2022-08-19T05:38:28;95595.88;;;22.79;68.30
41222;BME280;26952;42.884;23.918;2022-08-19T05:40:55;95603.44;;;23.08;68.30
41222;BME280;26952;42.884;23.918;2022-08-19T05:43:20;95601.22;;;23.27;68.45
41222;BME280;26952;42.884;23.918;2022-08-19T05:45:46;95613.47;;;23.40;66.67
41222;BME280;26952;42.884;23.918;2022-08-19T05:48:12;95600.81;;;23.45;67.14
41222;BME280;26952;42.884;23.918;2022-08-19T05:50:40;95596.47;;;23.39;64.29
41222;BME280;26952;42.884;23.918;2022-08-19T05:53:06;95599.59;;;23.63;62.48
41222;BME280;26952;42.884;23.918;2022-08-19T05:55:31;95615.41;;;23.81;64.04
41222;BME280;26952;42.884;23.918;2022-08-19T05:57:57;95610.59;;;23.88;62.78
41222;BME280;26952;42.884;23.918;2022-08-19T06:00:22;95596.34;;;23.97;64.71
41222;BME280;26952;42.884;23.918;2022-08-19T06:02:48;95616.16;;;24.13;61.89
41222;BME280;26952;42.884;23.918;2022-08-19T06:05:14;95620.28;;;24.25;62.32
41222;BME280;26952;42.884;23.918;2022-08-19T06:07:39;95610.34;;;24.36;63.15
41222;BME280;26952;42.884;23.918;2022-08-19T06:10:08;95609.31;;;24.52;65.01
41222;BME280;26952;42.884;23.918;2022-08-19T06:12:34;95604.00;;;24.72;62.52
41222;BME280;26952;42.884;23.918;2022-08-19T06:15:02;95613.81;;;24.93;60.58
41222;BME280;26952;42.884;23.918;2022-08-19T06:17:29;95593.50;;;25.01;59.30
41222;BME280;26952;42.884;23.918;2022-08-19T06:19:55;95610.06;;;25.29;60.34
41222;BME280;26952;42.884;23.918;2022-08-19T06:22:21;95603.59;;;25.55;59.54
41222;BME280;26952;42.884;23.918;2022-08-19T06:24:46;95600.31;;;25.68;56.04
41222;BME280;26952;42.884;23.918;2022-08-19T06:27:11;95598.09;;;26.21;57.19
41222;BME280;26952;42.884;23.918;2022-08-19T06:29:38;95579.19;;;26.59;54.84
41222;BME280;26952;42.884;23.918;2022-08-19T06:32:03;95595.44;;;27.18;53.18
41222;BME280;26952;42.884;23.918;2022-08-19T06:34:31;95610.13;;;27.61;51.11
41222;BME280;26952;42.884;23.918;2022-08-19T06:36:59;95591.59;;;27.96;52.23
41222;BME280;26952;42.884;23.918;2022-08-19T06:39:31;95616.63;;;28.45;50.10
41222;BME280;26952;42.884;23.918;2022-08-19T06:41:58;95611.94;;;28.75;48.29
41222;BME280;26952;42.884;23.918;2022-08-19T06:44:27;95616.81;;;29.20;47.59
41222;BME280;26952;42.884;23.918;2022-08-19T06:46:54;95609.69;;;29.56;48.61
41222;BME280;26952;42.884;23.918;2022-08-19T06:49:20;95614.50;;;29.96;47.47
41222;BME280;26952;42.884;23.918;2022-08-19T06:51:48;95621.28;;;30.31;46.43
41222;BME280;26952;42.884;23.918;2022-08-19T06:54:15;95620.91;;;30.51;45.57
41222;BME280;26952;42.884;23.918;2022-08-19T06:56:41;95602.88;;;30.50;47.26
41222;BME280;26952;42.884;23.918;2022-08-19T06:59:10;95617.38;;;30.77;43.84
41222;BME280;26952;42.884;23.918;2022-08-19T07:01:48;95593.31;;;31.01;42.92
41222;BME280;26952;42.884;23.918;2022-08-19T07:04:20;95630.31;;;31.13;43.03
41222;BME280;26952;42.884;23.918;2022-08-19T07:06:46;95605.63;;;31.40;43.23
41222;BME280;26952;42.884;23.918;2022-08-19T07:09:14;95608.38;;;31.84;41.60
41222;BME280;26952;42.884;23.918;2022-08-19T07:11:45;95615.84;;;32.14;44.44
41222;BME280;26952;42.884;23.918;2022-08-19T07:14:11;95599.00;;;32.29;40.99
41222;BME280;26952;42.884;23.918;2022-08-19T07:16:37;95595.09;;;32.52;40.06
41222;BME280;26952;42.884;23.918;2022-08-19T07:19:03;95599.53;;;32.79;40.34
41222;BME280;26952;42.884;23.918;2022-08-19T07:21:28;95616.94;;;33.13;36.92
41222;BME280;26952;42.884;23.918;2022-08-19T07:23:58;95614.53;;;33.37;39.17
41222;BME280;26952;42.884;23.918;2022-08-19T07:26:30;95602.25;;;33.35;32.62
41222;BME280;26952;42.884;23.918;2022-08-19T07:28:56;95595.47;;;33.32;32.07
41222;BME280;26952;42.884;23.918;2022-08-19T07:31:25;95609.03;;;33.37;32.27
41222;BME280;26952;42.884;23.918;2022-08-19T07:33:52;95617.88;;;33.00;32.75
41222;BME280;26952;42.884;23.918;2022-08-19T07:36:26;95609.97;;;33.16;31.62
41222;BME280;26952;42.884;23.918;2022-08-19T07:38:58;95610.88;;;33.59;31.09
41222;BME280;26952;42.884;23.918;2022-08-19T07:41:26;95591.28;;;33.43;31.63
41222;BME280;26952;42.884;23.918;2022-08-19T07:43:53;95606.31;;;33.54;32.28
41222;BME280;26952;42.884;23.918;2022-08-19T07:46:19;95603.91;;;33.53;32.66
41222;BME280;26952;42.884;23.918;2022-08-19T07:48:47;95608.06;;;34.10;31.88
41222;BME280;26952;42.884;23.918;2022-08-19T07:51:18;95592.78;;;34.47;30.27
41222;BME280;26952;42.884;23.918;2022-08-19T07:53:46;95601.53;;;34.78;30.74
41222;BME280;26952;42.884;23.918;2022-08-19T07:56:13;95606.66;;;34.88;31.81
41222;BME280;26952;42.884;23.918;2022-08-19T07:58:41;95611.16;;;35.01;32.58
41222;BME280;26952;42.884;23.918;2022-08-19T08:01:10;95603.06;;;35.25;30.48
41222;BME280;26952;42.884;23.918;2022-08-19T08:03:36;95602.44;;;35.20;29.45
41222;BME280;26952;42.884;23.918;2022-08-19T08:06:20;95598.13;;;35.10;31.62
41222;BME280;26952;42.884;23.918;2022-08-19T08:09:06;95598.00;;;35.56;30.24
41222;BME280;26952;42.884;23.918;2022-08-19T08:11:47;95592.41;;;35.65;27.96
41222;BME280;26952;42.884;23.918;2022-08-19T08:14:42;95606.38;;;35.10;32.59
41222;BME280;26952;42.884;23.918;2022-08-19T08:17:09;95603.69;;;35.31;33.16
41222;BME280;26952;42.884;23.918;2022-08-19T08:19:36;95594.78;;;35.54;28.37
41222;BME280;26952;42.884;23.918;2022-08-19T08:22:02;95590.66;;;35.60;27.67
41222;BME280;26952;42.884;23.918;2022-08-19T08:24:29;95609.63;;;35.33;27.78
41222;BME280;26952;42.884;23.918;2022-08-19T08:26:57;95599.63;;;34.70;29.15
41222;BME280;26952;42.884;23.918;2022-08-19T08:29:25;95564.41;;;34.55;28.55
41222;BME280;26952;42.884;23.918;2022-08-19T08:31:50;95591.56;;;35.03;28.09
41222;BME280;26952;42.884;23.918;2022-08-19T08:34:16;95593.25;;;34.86;28.68
41222;BME280;26952;42.884;23.918;2022-08-19T08:36:44;95591.69;;;35.06;28.67
41222;BME280;26952;42.884;23.918;2022-08-19T08:39:12;95601.19;;;34.79;29.12
41222;BME280;26952;42.884;23.918;2022-08-19T08:41:52;95599.84;;;34.94;29.65
41222;BME280;26952;42.884;23.918;2022-08-19T08:44:31;95589.28;;;34.67;29.51
41222;BME280;26952;42.884;23.918;2022-08-19T08:47:03;95587.59;;;35.12;27.85
41222;BME280;26952;42.884;23.918;2022-08-19T08:49:37;95578.28;;;35.25;28.56
41222;BME280;26952;42.884;23.918;2022-08-19T08:52:11;95583.22;;;35.40;28.04
41222;BME280;26952;42.884;23.918;2022-08-19T08:54:47;95586.44;;;35.63;29.49
41222;BME280;26952;42.884;23.918;2022-08-19T08:57:18;95579.56;;;35.89;29.06
41222;BME280;26952;42.884;23.918;2022-08-19T08:59:47;95584.22;;;35.56;27.98
41222;BME280;26952;42.884;23.918;2022-08-19T09:02:18;95570.28;;;35.73;27.44
41222;BME280;26952;42.884;23.918;2022-08-19T09:04:44;95572.31;;;34.94;29.01
41222;BME280;26952;42.884;23.918;2022-08-19T09:09:52;95558.22;;;34.66;31.40
41222;BME280;26952;42.884;23.918;2022-08-19T09:12:52;95575.38;;;35.22;30.17
41222;BME280;26952;42.884;23.918;2022-08-19T09:15:25;95577.50;;;35.45;30.24
41222;BME280;26952;42.884;23.918;2022-08-19T09:17:53;95549.03;;;35.41;27.61
41222;BME280;26952;42.884;23.918;2022-08-19T09:20:22;95564.44;;;35.95;27.85
41222;BME280;26952;42.884;23.918;2022-08-19T09:22:48;95565.66;;;36.31;25.78
41222;BME280;26952;42.884;23.918;2022-08-19T09:25:20;95558.91;;;36.40;28.17
41222;BME280;26952;42.884;23.918;2022-08-19T09:27:49;95557.66;;;36.62;26.47
41222;BME280;26952;42.884;23.918;2022-08-19T09:30:28;95561.81;;;36.56;26.26
41222;BME280;26952;42.884;23.918;2022-08-19T09:32:54;95539.91;;;35.00;27.78
41222;BME280;26952;42.884;23.918;2022-08-19T09:35:22;95520.53;;;34.21;28.83
41222;BME280;26952;42.884;23.918;2022-08-19T09:37:49;95571.97;;;34.29;28.00
41222;BME280;26952;42.884;23.918;2022-08-19T09:40:15;95546.78;;;34.56;29.75
41222;BME280;26952;42.884;23.918;2022-08-19T09:42:41;95541.06;;;35.19;29.85
41222;BME280;26952;42.884;23.918;2022-08-19T09:45:09;95549.66;;;35.59;28.70
41222;BME280;26952;42.884;23.918;2022-08-19T09:47:35;95533.78;;;35.76;27.36
41222;BME280;26952;42.884;23.918;2022-08-19T09:50:04;95488.22;;;35.46;26.93
41222;BME280;26952;42.884;23.918;2022-08-19T09:52:30;95506.31;;;36.00;28.99
41222;BME280;26952;42.884;23.918;2022-08-19T09:54:56;95522.00;;;36.45;26.62
41222;BME280;26952;42.884;23.918;2022-08-19T09:57:21;95550.78;;;36.92;28.57
41222;BME280;26952;42.884;23.918;2022-08-19T09:59:47;95537.66;;;37.25;27.25
41222;BME280;26952;42.884;23.918;2022-08-19T10:02:13;95530.38;;;37.20;27.56
41222;BME280;26952;42.884;23.918;2022-08-19T10:04:38;95539.34;;;37.29;27.17
41222;BME280;26952;42.884;23.918;2022-08-19T10:07:22;95533.88;;;37.45;25.32
41222;BME280;26952;42.884;23.918;2022-08-19T10:09:48;95529.75;;;37.39;26.70
41222;BME280;26952;42.884;23.918;2022-08-19T10:12:13;95499.84;;;37.29;26.49
41222;BME280;26952;42.884;23.918;2022-08-19T10:14:40;95512.78;;;37.25;24.97
41222;BME280;26952;42.884;23.918;2022-08-19T10:17:06;95514.03;;;37.27;24.27
41222;BME280;26952;42.884;23.918;2022-08-19T10:19:32;95505.81;;;36.43;25.51
41222;BME280;26952;42.884;23.918;2022-08-19T10:22:04;95519.91;;;36.05;26.69
41222;BME280;26952;42.884;23.918;2022-08-19T10:24:30;95509.97;;;35.92;29.82
41222;BME280;26952;42.884;23.918;2022-08-19T10:26:56;95509.91;;;36.13;27.04
41222;BME280;26952;42.884;23.918;2022-08-19T10:29:22;95519.44;;;36.15;28.37
41222;BME280;26952;42.884;23.918;2022-08-19T10:31:47;95490.03;;;36.32;26.47
41222;BME280;26952;42.884;23.918;2022-08-19T10:34:13;95483.38;;;36.45;25.84
41222;BME280;26952;42.884;23.918;2022-08-19T10:36:38;95503.53;;;36.57;27.22
41222;BME280;26952;42.884;23.918;2022-08-19T10:39:07;95495.44;;;35.83;26.60
41222;BME280;26952;42.884;23.918;2022-08-19T10:41:37;95494.91;;;35.90;27.91
41222;BME280;26952;42.884;23.918;2022-08-19T10:44:08;95492.72;;;35.30;27.08
41222;BME280;26952;42.884;23.918;2022-08-19T10:46:40;95502.38;;;35.57;28.46
41222;BME280;26952;42.884;23.918;2022-08-19T10:49:08;95515.97;;;36.06;27.51
41222;BME280;26952;42.884;23.918;2022-08-19T10:51:34;95497.88;;;36.54;26.80
41222;BME280;26952;42.884;23.918;2022-08-19T10:54:18;95500.03;;;36.72;28.04
41222;BME280;26952;42.884;23.918;2022-08-19T10:56:44;95496.44;;;37.08;25.76
41222;BME280;26952;42.884;23.918;2022-08-19T10:59:29;95486.19;;;37.08;24.90
41222;BME280;26952;42.884;23.918;2022-08-19T11:02:00;95504.47;;;37.13;25.58
41222;BME280;26952;42.884;23.918;2022-08-19T11:04:25;95483.38;;;36.45;25.92
41222;BME280;26952;42.884;23.918;2022-08-19T11:06:51;95485.09;;;36.97;25.94
41222;BME280;26952;42.884;23.918;2022-08-19T11:09:21;95478.16;;;37.03;25.01
41222;BME280;26952;42.884;23.918;2022-08-19T11:11:49;95480.84;;;36.76;27.23
41222;BME280;26952;42.884;23.918;2022-08-19T11:14:17;95471.66;;;36.72;26.71
41222;BME280;26952;42.884;23.918;2022-08-19T11:16:47;95471.66;;;36.72;26.44
41222;BME280;26952;42.884;23.918;2022-08-19T11:19:12;95484.53;;;36.32;27.20
41222;BME280;26952;42.884;23.918;2022-08-19T11:21:42;95477.81;;;35.52;26.85
41222;BME280;26952;42.884;23.918;2022-08-19T11:24:12;95477.19;;;35.05;27.18
41222;BME280;26952;42.884;23.918;2022-08-19T11:26:40;95479.94;;;35.46;27.59
41222;BME280;26952;42.884;23.918;2022-08-19T11:29:07;95474.63;;;35.74;27.32
41222;BME280;26952;42.884;23.918;2022-08-19T11:31:37;95473.03;;;36.30;27.43
41222;BME280;26952;42.884;23.918;2022-08-19T11:34:06;95456.84;;;36.40;26.00
41222;BME280;26952;42.884;23.918;2022-08-19T11:36:32;95467.19;;;36.55;26.85
41222;BME280;26952;42.884;23.918;2022-08-19T11:38:58;95461.50;;;35.91;26.47
41222;BME280;26952;42.884;23.918;2022-08-19T11:41:25;95461.06;;;36.13;26.62
41222;BME280;26952;42.884;23.918;2022-08-19T11:43:52;95458.31;;;36.25;25.17
41222;BME280;26952;42.884;23.918;2022-08-19T11:46:22;95443.00;;;36.64;26.41
41222;BME280;26952;42.884;23.918;2022-08-19T11:48:48;95465.09;;;36.64;26.59
41222;BME280;26952;42.884;23.918;2022-08-19T11:51:18;95464.66;;;36.38;25.62
41222;BME280;26952;42.884;23.918;2022-08-19T11:53:44;95427.84;;;35.86;26.61
41222;BME280;26952;42.884;23.918;2022-08-19T11:56:11;95451.63;;;35.90;25.72
41222;BME280;26952;42.884;23.918;2022-08-19T11:58:36;95440.41;;;36.32;25.72
41222;BME280;26952;42.884;23.918;2022-08-19T12:01:06;95444.06;;;35.55;26.57
41222;BME280;26952;42.884;23.918;2022-08-19T12:03:32;95443.34;;;35.25;26.25
41222;BME280;26952;42.884;23.918;2022-08-19T12:05:58;95442.53;;;34.92;26.13
41222;BME280;26952;42.884;23.918;2022-08-19T12:08:27;95399.41;;;34.96;26.37
41222;BME280;26952;42.884;23.918;2022-08-19T12:10:53;95425.59;;;35.55;26.13
41222;BME280;26952;42.884;23.918;2022-08-19T12:13:18;95441.91;;;35.72;26.13
41222;BME280;26952;42.884;23.918;2022-08-19T12:15:45;95432.25;;;35.66;26.91
41222;BME280;26952;42.884;23.918;2022-08-19T12:18:12;95426.53;;;35.83;25.36
41222;BME280;26952;42.884;23.918;2022-08-19T12:20:40;95416.91;;;35.89;26.44
41222;BME280;26952;42.884;23.918;2022-08-19T12:23:07;95417.97;;;35.97;25.22
41222;BME280;26952;42.884;23.918;2022-08-19T12:25:35;95425.94;;;35.66;24.80
41222;BME280;26952;42.884;23.918;2022-08-19T12:28:01;95417.41;;;35.47;25.44
41222;BME280;26952;42.884;23.918;2022-08-19T12:30:26;95421.47;;;35.73;25.49
41222;BME280;26952;42.884;23.918;2022-08-19T12:32:52;95407.69;;;35.29;25.37
41222;BME280;26952;42.884;23.918;2022-08-19T12:35:19;95413.03;;;35.46;25.25
41222;BME280;26952;42.884;23.918;2022-08-19T12:37:48;95420.13;;;35.79;24.29
41222;BME280;26952;42.884;23.918;2022-08-19T12:40:15;95419.69;;;36.01;25.02
41222;BME280;26952;42.884;23.918;2022-08-19T12:42:41;95419.47;;;36.06;24.38
41222;BME280;26952;42.884;23.918;2022-08-19T12:45:12;95414.53;;;35.43;24.39
41222;BME280;26952;42.884;23.918;2022-08-19T12:47:39;95373.13;;;35.31;24.65
41222;BME280;26952;42.884;23.918;2022-08-19T12:50:05;95408.03;;;35.72;25.05
41222;BME280;26952;42.884;23.918;2022-08-19T12:52:36;95417.53;;;35.30;25.27
41222;BME280;26952;42.884;23.918;2022-08-19T12:55:07;95411.03;;;35.34;24.84
41222;BME280;26952;42.884;23.918;2022-08-19T12:57:33;95406.31;;;35.55;24.56
41222;BME280;26952;42.884;23.918;2022-08-19T13:02:31;95389.50;;;36.41;25.31